Airfield :
LOGIN :

Register | Disclaimer

   EN    FR    IT 

 










Legend :    VFR   Marginal VFR   IFR   Intensive IFR   Very Intensive IFR
Visi :
Ceiling :
>= 8 km
>= 3000ft
5 to 8 km
1000 to 3000 ft
1500m to 5 km
500 to 1000 ft
800 to 1500m
200 to 500 ft
< 800m
< 200 ft
Symbols :   Thunderstorms  Fog  Heavy snow  Heavy precipitations  Wind > 20 kt
SIGMETs :     Misc.  Thunderstorms  Icing  Turbulence  Mountain Waves  Volcanic Ashes






- Airport Elevation : 463 ft
- IATA code : SZY
- AIRPORT CLOSED.


EPSY - Szczytno

CURRENT METAR :
  • 201700Z 11008KT 070V160 9000 OVC004 08/07 Q1023

EXPIRED METARs :
  • 201630Z 11009KT 060V140 6000 OVC004 07/07 Q1023
  • 201600Z 10008KT 050V150 6000 OVC003 07/07 Q1023
  • 201530Z 11007KT 050V150 6000 OVC003 07/07 Q1023
  • 201500Z 10007KT 060V160 2900 -DZ BR OVC003 07/07 Q1023
  • 201430Z 10006KT 050V160 3500 BR OVC003 07/07 Q1023

TAF TAF EPSY
Valid from the 20 at 15:00 until the 21 at 00:00 UTC


201430Z 2015/2024 11005KT 3000 BR OVC003
PROB40
TEMPO 2015/2024 5000 BR OVC006



MET'MAP, your aeronautical weather chart ! - Copyright ORBIFLY December 2007 - Disclaimer

ORBIFLY MET'MAP TEAM :

Programming & Development : Alexandra Zaïnal
Concept & Development : Baudouin d'Aumeries
Co-Development & Prog : Marc-Olivier Méhu
Technical & hardware support : Manuel Goepfert

Contact : metmap@orbifly.com




SOURCES & CREDITS :

   NOAA